LEGR/GRX METAR and TAF weather

Enter ICAO airport designator
Station Type Date Time Source
LEGR METAR 2019/06/26 20:00 UTC NOAA

LEGR 262000Z 23005KT 9999 FEW090 28/14 Q1017


Station Type Date Time Source
LEGR Decoded METAR 2019/06/26 20:00 UTC NOAA

Granada / Aeropuerto, Spain (LEGR) 37-11N 003-47W 570M
Jun 26, 2019 - 04:00 PM EDT / 2019.06.26 2000 UTC
Wind: from the SW (230 degrees) at 6 MPH (5 KT):0
Visibility: greater than 7 mile(s):0
Sky conditions: mostly clear
Temperature: 82 F (28 C)
Dew Point: 57 F (14 C)
Relative Humidity: 42%
Pressure (altimeter): 30.03 in. Hg (1017 hPa)
ob: LEGR 262000Z 23005KT 9999 FEW090 28/14 Q1017
cycle: 20

Station Type Date Time Source
LEGR TAF 2019/06/26 15:27 UTC NOAA

TAF LEGR 261400Z 2615/2715 29008KT CAVOK TX39/2715Z TN16/2705Z

Example: see airport list